Time;durP1;ratioP1;P1;durP2;ratioP2;P2;SDS_P1;SDS_P2;PMS_P1;PMS_P2;Temp;Humidity;BMP_temperature;BMP_pressure;BME280_temperature;BME280_humidity;BME280_pressure;Samples;Min_cycle;Max_cycle;Signal;HPM_P1;HPM_P2
2022/02/03 00:00:04;;;;;;;;;;;;;;;1.76;100.00;96474.97;1021634;29;19917;-68
2022/02/03 00:01:12;;;;;;;;;;;;;;;1.75;100.00;96474.19;1027804;29;19922;-69
2022/02/03 00:02:23;;;;;;;;;;;;;;;1.78;100.00;96478.19;1031228;28;19921;-69
2022/02/03 00:02:48;;;;;;;;;;;;;;;1.81;100.00;96482.97;1038215;28;19981;-68
2022/02/03 00:03:30;;;;;;;;;;;;;;;1.79;100.00;96479.78;1031281;28;19911;-69
2022/02/03 00:04:07;;;;;;;;;;;;;;;1.78;100.00;96483.38;1031681;28;19911;-68
2022/02/03 00:04:49;;;;;;;;;;;;;;;1.78;100.00;96478.19;1023302;29;19907;-69
2022/02/03 00:05:29;;;;;;;;;;;;;;;1.76;100.00;96480.16;1031515;28;19922;-69
2022/02/03 00:06:07;;;;;;;;;;;;;;;1.71;100.00;96483.31;1030562;28;19966;-67
2022/02/03 00:06:51;;;;;;;;;;;;;;;1.75;100.00;96487.13;1031050;28;19957;-67
2022/02/03 00:07:29;;;;;;;;;;;;;;;1.76;100.00;96483.53;1023006;29;19915;-68
2022/02/03 00:08:56;;;;;;;;;;;;;;;1.74;100.00;96479.53;1033193;28;19921;-67
2022/02/03 00:21:59;;;;;;;;;;;;;;;1.79;100.00;96480.56;1029898;28;19915;-67
2022/02/03 00:22:57;;;;;;;;;;;;;;;1.96;100.00;96480.28;1035421;28;19910;-68
2022/02/03 00:24:25;;;;;;;;;;;;;;;1.98;100.00;96479.13;1035713;28;19922;-68
2022/02/03 00:25:32;;;;;;;;;;;;;;;2.01;100.00;96477.91;1036077;28;19914;-68
2022/02/03 00:25:52;;;;;;;;;;;;;;;2.00;100.00;96482.28;1029231;28;19918;-67
2022/02/03 00:26:25;;;;;;;;;;;;;;;2.02;100.00;96480.31;1027579;28;19913;-68
2022/02/03 00:27:08;;;;;;;;;;;;;;;2.00;100.00;96482.28;1027265;28;20519;-67
2022/02/03 00:28:04;;;;;;;;;;;;;;;2.02;100.00;96485.50;1031700;28;19906;-68
2022/02/03 00:28:40;;;;;;;;;;;;;;;1.99;100.00;96485.88;1031144;28;20303;-67
2022/02/03 00:29:21;;;;;;;;;;;;;;;1.98;100.00;96492.06;1027363;28;20284;-67
2022/02/03 00:29:59;;;;;;;;;;;;;;;1.97;100.00;96492.22;1027067;28;19910;-68
2022/02/03 00:31:28;;;;;;;;;;;;;;;1.96;100.00;96490.63;1031607;28;20000;-67
2022/02/03 00:31:59;;;;;;;;;;;;;;;1.92;100.00;96489.44;1027523;28;20368;-68
2022/02/03 00:33:49;;;;;;;;;;;;;;;1.95;100.00;96489.84;1027747;28;20042;-67
2022/02/03 00:34:29;;;;;;;;;;;;;;;1.93;100.00;96486.63;1027366;28;20396;-68
2022/02/03 00:35:41;;;;;;;;;;;;;;;1.95;100.00;96487.25;1030606;28;19910;-68
2022/02/03 00:36:41;;;;;;;;;;;;;;;2.00;100.00;96486.69;1026986;28;19961;-68
2022/02/03 00:37:26;;;;;;;;;;;;;;;2.00;100.00;96486.69;1027545;28;19910;-67
2022/02/03 00:38:14;;;;;;;;;;;;;;;1.99;100.00;96490.25;1029540;28;20285;-68
2022/02/03 00:48:20;;;;;;;;;;;;;;;2.02;100.00;96485.50;1031544;28;19917;-68
2022/02/03 00:49:20;;;;;;;;;;;;;;;2.03;100.00;96481.91;1031143;28;19910;-68
2022/02/03 00:50:04;;;;;;;;;;;;;;;2.03;100.00;96487.09;1026134;28;19911;-68
2022/02/03 00:50:41;;;;;;;;;;;;;;;2.05;100.00;96485.13;1025355;28;19919;-67
2022/02/03 00:51:12;;;;;;;;;;;;;;;2.03;100.00;96484.50;1027298;28;20565;-68
2022/02/03 00:51:49;;;;;;;;;;;;;;;2.02;100.00;96485.50;1026210;28;19910;-67
2022/02/03 00:52:19;;;;;;;;;;;;;;;2.01;100.00;96489.09;1029671;28;19913;-68
2022/02/03 00:52:49;;;;;;;;;;;;;;;2.00;100.00;96487.47;1026427;28;20043;-67
2022/02/03 00:53:22;;;;;;;;;;;;;;;2.00;100.00;96489.25;1031335;28;19909;-68
2022/02/03 00:53:55;;;;;;;;;;;;;;;2.00;100.00;96484.88;1038136;28;19913;-68
2022/02/03 00:54:27;;;;;;;;;;;;;;;1.99;100.00;96485.88;1035505;28;19909;-67
2022/02/03 00:54:57;;;;;;;;;;;;;;;1.98;100.00;96481.69;1035502;28;19909;-67
2022/02/03 00:55:27;;;;;;;;;;;;;;;2.00;100.00;96482.28;1034966;28;19905;-67
2022/02/03 00:55:59;;;;;;;;;;;;;;;2.01;100.00;96483.91;1027546;28;19906;-68
2022/02/03 00:56:33;;;;;;;;;;;;;;;2.01;100.00;96489.09;1028178;28;19911;-68
2022/02/03 00:57:05;;;;;;;;;;;;;;;1.98;100.00;96483.47;1031220;28;20457;-68
2022/02/03 00:57:39;;;;;;;;;;;;;;;2.01;100.00;96483.91;1028608;28;19914;-67
2022/02/03 00:58:10;;;;;;;;;;;;;;;2.01;100.00;96480.50;1027186;28;20300;-68
2022/02/03 00:58:42;;;;;;;;;;;;;;;2.00;100.00;96478.91;1027439;28;19954;-68
2022/02/03 00:59:13;;;;;;;;;;;;;;;1.98;100.00;96484.28;1023915;28;19910;-68
2022/02/03 00:59:53;;;;;;;;;;;;;;;1.95;100.00;96474.31;1027482;28;19968;-68
2022/02/03 01:00:23;;;;;;;;;;;;;;;1.93;100.00;96476.28;1023682;29;20487;-68
2022/02/03 01:00:57;;;;;;;;;;;;;;;1.95;100.00;96476.91;1024670;28;19911;-67
2022/02/03 01:01:31;;;;;;;;;;;;;;;1.98;100.00;96479.13;1023522;29;19910;-67
2022/02/03 01:02:03;;;;;;;;;;;;;;;1.98;100.00;96476.53;1020259;29;20005;-67
2022/02/03 01:02:37;;;;;;;;;;;;;;;1.98;100.00;96484.28;1023240;29;20548;-68
2022/02/03 01:03:08;;;;;;;;;;;;;;;1.98;100.00;96478.28;1024165;28;19930;-68
2022/02/03 01:03:39;;;;;;;;;;;;;;;1.98;100.00;96486.88;1024438;28;20380;-65
2022/02/03 01:04:10;;;;;;;;;;;;;;;1.99;100.00;96485.88;1027335;28;19910;-68
2022/02/03 01:04:40;;;;;;;;;;;;;;;1.99;100.00;96480.72;1023330;29;19915;-66
2022/02/03 01:05:13;;;;;;;;;;;;;;;1.99;100.00;96485.09;1023301;28;19915;-67
2022/02/03 01:05:45;;;;;;;;;;;;;;;1.98;100.00;96483.47;1023437;28;20353;-68
2022/02/03 01:06:16;;;;;;;;;;;;;;;2.00;100.00;96484.88;1024018;28;20399;-68
2022/02/03 01:06:50;;;;;;;;;;;;;;;2.00;100.00;96486.69;1019076;29;19911;-67
2022/02/03 01:07:21;;;;;;;;;;;;;;;1.95;100.00;96489.84;1019559;29;19946;-68
2022/02/03 01:07:52;;;;;;;;;;;;;;;1.93;100.00;96485.84;1011467;29;20346;-68
2022/02/03 01:08:23;;;;;;;;;;;;;;;1.85;100.00;96487.59;1016257;29;19907;-68
2022/02/03 01:08:54;;;;;;;;;;;;;;;1.90;100.00;96484.41;1020287;28;19958;-68
2022/02/03 01:09:26;;;;;;;;;;;;;;;1.93;100.00;96486.63;1023692;28;20745;-66
2022/02/03 01:10:06;;;;;;;;;;;;;;;1.96;100.00;96488.84;1027126;28;20257;-68
2022/02/03 01:10:40;;;;;;;;;;;;;;;1.97;100.00;96485.25;1027384;28;20496;-68
2022/02/03 01:11:16;;;;;;;;;;;;;;;1.99;100.00;96478.13;1023530;29;20645;-68
2022/02/03 01:11:47;;;;;;;;;;;;;;;1.98;100.00;96484.28;1021681;29;20359;-68
2022/02/03 01:12:28;;;;;;;;;;;;;;;1.99;100.00;96483.28;1020701;29;19926;-67
2022/02/03 01:14:13;;;;;;;;;;;;;;;2.04;100.00;96478.34;1028988;28;19968;-68
2022/02/03 01:15:10;;;;;;;;;;;;;;;2.02;100.00;96480.31;1020526;29;19930;-68
2022/02/03 01:15:52;;;;;;;;;;;;;;;2.04;100.00;96477.53;1020090;28;19915;-68
2022/02/03 01:17:42;;;;;;;;;;;;;;;2.10;100.00;96482.75;1034435;28;19917;-67
2022/02/03 01:19:11;;;;;;;;;;;;;;;2.07;100.00;96474.56;1024868;28;19974;-68
2022/02/03 01:20:37;;;;;;;;;;;;;;;2.06;100.00;96478.94;1030523;28;19906;-68
2022/02/03 01:21:02;;;;;;;;;;;;;;;2.10;100.00;96482.75;1028055;28;19914;-68
2022/02/03 01:35:15;;;;;;;;;;;;;;;1.54;100.00;96464.69;1018784;29;20563;-67
2022/02/03 01:36:57;;;;;;;;;;;;;;;1.49;100.00;96473.97;1022882;29;20393;-67
2022/02/03 01:43:42;;;;;;;;;;;;;;;1.37;100.00;96468.50;1035196;28;20500;-68
2022/02/03 01:44:22;;;;;;;;;;;;;;;1.37;100.00;96471.09;1031565;28;19945;-67
2022/02/03 01:45:08;;;;;;;;;;;;;;;1.37;100.00;96476.25;1027055;28;19911;-68
2022/02/03 01:46:15;;;;;;;;;;;;;;;1.35;100.00;96478.25;1030869;28;19914;-66
2022/02/03 01:46:58;;;;;;;;;;;;;;;1.35;100.00;96467.91;1031094;28;20016;-65
2022/02/03 01:49:29;;;;;;;;;;;;;;;1.34;100.00;96471.47;1023192;28;19906;-66
2022/02/03 01:51:42;;;;;;;;;;;;;;;1.38;100.00;96472.72;1026834;28;19936;-67
2022/02/03 01:52:13;;;;;;;;;;;;;;;1.36;100.00;96470.28;1028454;28;19981;-67
2022/02/03 01:52:48;;;;;;;;;;;;;;;1.36;100.00;96474.66;1026712;28;19961;-64
2022/02/03 01:53:19;;;;;;;;;;;;;;;1.36;100.00;96472.88;1022274;29;19919;-68
2022/02/03 01:53:50;;;;;;;;;;;;;;;1.39;100.00;96469.94;1023298;29;19918;-68
2022/02/03 01:54:29;;;;;;;;;;;;;;;1.41;100.00;96469.75;1015911;29;20070;-66
2022/02/03 01:55:00;;;;;;;;;;;;;;;1.41;100.00;96473.13;1021237;29;19903;-68
2022/02/03 01:55:30;;;;;;;;;;;;;;;1.41;100.00;96474.94;1022816;29;20010;-70
2022/02/03 01:56:03;;;;;;;;;;;;;;;1.41;100.00;96467.16;1020344;28;19915;-68
2022/02/03 01:56:36;;;;;;;;;;;;;;;1.44;100.00;96466.78;1019747;29;19991;-67
2022/02/03 01:57:10;;;;;;;;;;;;;;;1.47;100.00;96471.56;1019847;29;19915;-67
2022/02/03 01:57:42;;;;;;;;;;;;;;;1.48;100.00;96465.44;1021085;29;19919;-67
2022/02/03 01:58:13;;;;;;;;;;;;;;;1.46;100.00;96469.97;1025514;28;20369;-66
2022/02/03 01:58:46;;;;;;;;;;;;;;;1.46;100.00;96467.41;1027446;28;19957;-68
2022/02/03 01:59:23;;;;;;;;;;;;;;;1.47;100.00;96468.97;1028178;28;20012;-67
2022/02/03 01:59:55;;;;;;;;;;;;;;;1.47;100.00;96461.22;1031387;28;20403;-68
2022/02/03 02:00:25;;;;;;;;;;;;;;;1.49;100.00;96456.69;1033698;28;20343;-68
2022/02/03 02:00:57;;;;;;;;;;;;;;;1.49;100.00;96464.44;1031857;28;20004;-67
2022/02/03 02:01:27;;;;;;;;;;;;;;;1.54;100.00;96461.28;1023916;29;20009;-67
2022/02/03 02:01:58;;;;;;;;;;;;;;;1.55;100.00;96463.69;1023961;29;19914;-67
2022/02/03 02:02:31;;;;;;;;;;;;;;;1.55;100.00;96461.09;1019971;29;19986;-66
2022/02/03 02:03:13;;;;;;;;;;;;;;;1.58;100.00;96462.53;1024418;28;19927;-68
2022/02/03 02:03:49;;;;;;;;;;;;;;;1.62;100.00;96458.56;1031795;28;20004;-67
2022/02/03 02:04:30;;;;;;;;;;;;;;;1.63;100.00;96466.13;1031086;28;19910;-68
2022/02/03 02:05:02;;;;;;;;;;;;;;;1.65;100.00;96460.78;1032007;28;19917;-67
2022/02/03 02:05:40;;;;;;;;;;;;;;;1.65;100.00;96463.38;1031911;28;20016;-68
2022/02/03 02:06:16;;;;;;;;;;;;;;;1.68;100.00;96467.34;1030222;28;19914;-68
2022/02/03 02:06:59;;;;;;;;;;;;;;;1.69;100.00;96458.63;1031776;28;19921;-68
2022/02/03 02:07:33;;;;;;;;;;;;;;;1.70;100.00;96455.81;1031920;28;19913;-67
2022/02/03 02:08:09;;;;;;;;;;;;;;;1.73;100.00;96460.63;1034891;28;20301;-68
2022/02/03 02:08:40;;;;;;;;;;;;;;;1.76;100.00;96459.47;1031808;28;19965;-67
2022/02/03 02:09:54;;;;;;;;;;;;;;;1.77;100.00;96461.03;1032114;28;20384;-67
2022/02/03 02:12:03;;;;;;;;;;;;;;;1.90;100.00;96455.97;1031726;28;20328;-66
2022/02/03 02:12:59;;;;;;;;;;;;;;;1.89;100.00;96457.75;1036250;28;19918;-66
2022/02/03 02:13:48;;;;;;;;;;;;;;;1.88;100.00;96448.41;1031695;28;20375;-68
2022/02/03 02:15:15;;;;;;;;;;;;;;;1.90;100.00;96445.59;1027719;28;20437;-68
2022/02/03 02:16:05;;;;;;;;;;;;;;;1.91;100.00;96447.19;1025357;28;20020;-67
2022/02/03 02:39:08;;;;;;;;;;;;;;;2.45;100.00;96435.31;1031440;28;19972;-68
2022/02/03 02:40:06;;;;;;;;;;;;;;;2.48;100.00;96434.91;1027383;28;19918;-67
2022/02/03 02:42:58;;;;;;;;;;;;;;;2.53;100.00;96435.16;1035674;28;19914;-67
2022/02/03 02:43:29;;;;;;;;;;;;;;;2.56;100.00;96435.56;1035800;28;20016;-67
2022/02/03 02:44:02;;;;;;;;;;;;;;;2.60;100.00;96431.59;1035997;28;19917;-68
2022/02/03 02:44:44;;;;;;;;;;;;;;;2.59;100.00;96430.00;1035539;28;19913;-66
2022/02/03 02:45:15;;;;;;;;;;;;;;;2.60;100.00;96431.59;1031743;28;19982;-67
2022/02/03 02:45:53;;;;;;;;;;;;;;;2.62;100.00;96433.19;1027767;28;19918;-67
2022/02/03 02:46:42;;;;;;;;;;;;;;;2.60;100.00;96436.75;1023497;28;19914;-67
2022/02/03 02:47:15;;;;;;;;;;;;;;;2.60;100.00;96434.16;1027056;28;19981;-68
2022/02/03 02:47:58;;;;;;;;;;;;;;;2.63;100.00;96434.78;1027665;28;19922;-67
2022/02/03 02:48:40;;;;;;;;;;;;;;;2.64;100.00;96441.56;1031648;28;19917;-67
2022/02/03 02:49:25;;;;;;;;;;;;;;;2.64;100.00;96436.38;1031694;28;19914;-66
2022/02/03 02:49:58;;;;;;;;;;;;;;;2.63;100.00;96434.78;1031414;28;20415;-67
2022/02/03 02:50:38;;;;;;;;;;;;;;;2.63;100.00;96434.78;1036034;28;20012;-68
2022/02/03 02:51:13;;;;;;;;;;;;;;;2.64;100.00;96437.16;1036320;28;19913;-67
2022/02/03 02:51:54;;;;;;;;;;;;;;;2.65;100.00;96438.78;1035531;28;20371;-67
2022/02/03 02:52:39;;;;;;;;;;;;;;;2.67;100.00;96430.81;1031932;28;19924;-67
2022/02/03 02:53:26;;;;;;;;;;;;;;;2.70;100.00;96433.00;1027260;28;20368;-67
2022/02/03 02:54:18;;;;;;;;;;;;;;;2.71;100.00;96430.22;1024035;28;19918;-68
2022/02/03 02:58:40;;;;;;;;;;;;;;;2.70;100.00;96433.00;1018398;29;19942;-67
2022/02/03 03:02:51;;;;;;;;;;;;;;;2.74;100.00;96429.81;1034898;28;19913;-68
2022/02/03 03:28:53;;;;;;;;;;;;;;;2.76;100.00;96430.44;1022310;28;20016;-68
2022/02/03 03:30:55;;;;;;;;;;;;;;;2.79;100.00;96413.69;1030897;28;19945;-68
2022/02/03 03:32:34;;;;;;;;;;;;;;;2.80;100.00;96410.09;1031919;28;19972;-67
2022/02/03 03:33:55;;;;;;;;;;;;;;;2.81;100.00;96411.69;1026609;28;19918;-67
2022/02/03 03:35:45;;;;;;;;;;;;;;;2.81;100.00;96411.69;1034682;28;19921;-67
2022/02/03 03:36:19;;;;;;;;;;;;;;;2.80;100.00;96415.28;1034802;28;19917;-67
2022/02/03 03:36:51;;;;;;;;;;;;;;;2.79;100.00;96418.88;1035055;28;19918;-68
2022/02/03 03:37:37;;;;;;;;;;;;;;;2.80;100.00;96416.09;1034825;28;20493;-68
2022/02/03 03:38:09;;;;;;;;;;;;;;;2.81;100.00;96414.28;1034736;28;19918;-67
2022/02/03 03:38:42;;;;;;;;;;;;;;;2.84;100.00;96419.06;1034441;28;19918;-67
2022/02/03 03:39:13;;;;;;;;;;;;;;;2.83;100.00;96420.09;1026596;28;19912;-66
2022/02/03 03:39:47;;;;;;;;;;;;;;;2.82;100.00;96418.50;1022955;29;19918;-68
2022/02/03 03:40:18;;;;;;;;;;;;;;;2.83;100.00;96425.25;1019033;29;19915;-68
2022/02/03 03:40:50;;;;;;;;;;;;;;;2.81;100.00;96419.47;1020627;28;19982;-68
2022/02/03 03:41:21;;;;;;;;;;;;;;;2.81;100.00;96417.66;1023375;28;19918;-68
2022/02/03 03:41:52;;;;;;;;;;;;;;;2.81;100.00;96422.84;1027406;28;19914;-68
2022/02/03 03:42:26;;;;;;;;;;;;;;;2.84;100.00;96421.66;1022891;29;19970;-68
2022/02/03 03:43:11;;;;;;;;;;;;;;;2.82;100.00;96423.69;1017562;29;19919;-68
2022/02/03 03:43:42;;;;;;;;;;;;;;;2.82;100.00;96423.69;1025205;28;19922;-68
2022/02/03 03:44:14;;;;;;;;;;;;;;;2.83;100.00;96420.09;1027787;28;20104;-66
2022/02/03 03:44:44;;;;;;;;;;;;;;;2.84;100.00;96426.84;1028179;28;19953;-68
2022/02/03 03:45:15;;;;;;;;;;;;;;;2.83;100.00;96420.09;1026512;28;20415;-68
2022/02/03 03:45:46;;;;;;;;;;;;;;;2.84;100.00;96421.66;1023080;28;19918;-67
2022/02/03 03:46:22;;;;;;;;;;;;;;;2.82;100.00;96415.91;1026324;28;19914;-68
2022/02/03 03:46:53;;;;;;;;;;;;;;;2.84;100.00;96419.88;1022674;29;20026;-66
2022/02/03 03:47:24;;;;;;;;;;;;;;;2.84;100.00;96419.06;1021676;29;20348;-67
2022/02/03 03:47:54;;;;;;;;;;;;;;;2.86;100.00;96413.72;1019418;29;19992;-68
2022/02/03 03:48:35;;;;;;;;;;;;;;;2.85;100.00;96415.50;1023129;28;19919;-68
2022/02/03 03:49:06;;;;;;;;;;;;;;;2.86;100.00;96418.91;1028112;28;20016;-67
2022/02/03 03:49:43;;;;;;;;;;;;;;;2.84;100.00;96421.66;1030643;28;20058;-67
2022/02/03 03:50:16;;;;;;;;;;;;;;;2.84;100.00;96417.28;1025854;28;20502;-68
2022/02/03 03:50:48;;;;;;;;;;;;;;;2.84;100.00;96419.06;1018903;29;20047;-69
2022/02/03 03:51:18;;;;;;;;;;;;;;;2.84;100.00;96416.50;1016274;29;19975;-69
2022/02/03 03:51:53;;;;;;;;;;;;;;;2.84;100.00;96422.47;1018700;29;19923;-67
2022/02/03 03:52:27;;;;;;;;;;;;;;;2.85;100.00;96423.28;1015824;29;19983;-67
2022/02/03 03:53:02;;;;;;;;;;;;;;;2.84;100.00;96417.28;1015345;29;19915;-67
2022/02/03 03:53:42;;;;;;;;;;;;;;;2.87;100.00;96420.47;1022480;28;20684;-66
2022/02/03 03:54:18;;;;;;;;;;;;;;;2.84;100.00;96414.69;1022313;29;20021;-68
2022/02/03 03:54:57;;;;;;;;;;;;;;;2.86;100.00;96424.09;1025445;28;19925;-68
2022/02/03 03:55:44;;;;;;;;;;;;;;;2.84;100.00;96411.31;1026633;28;20046;-68
2022/02/03 03:56:36;;;;;;;;;;;;;;;2.84;100.00;96416.50;1030727;28;20597;-67
2022/02/03 03:57:31;;;;;;;;;;;;;;;2.86;100.00;96418.91;1030702;28;19914;-67
2022/02/03 03:58:23;;;;;;;;;;;;;;;2.84;100.00;96421.66;1030877;28;19921;-67
2022/02/03 03:59:29;;;;;;;;;;;;;;;2.84;100.00;96411.31;1026554;28;19942;-67
2022/02/03 04:29:29;;;;;;;;;;;;;;;2.94;100.00;96401.34;1026778;28;20016;-67
2022/02/03 04:32:28;;;;;;;;;;;;;;;2.93;100.00;96398.97;1026810;28;20346;-67
2022/02/03 04:33:43;;;;;;;;;;;;;;;2.92;100.00;96398.19;1031411;28;19914;-65
2022/02/03 04:39:46;;;;;;;;;;;;;;;2.91;100.00;96393.97;1034804;28;19939;-66
2022/02/03 04:46:16;;;;;;;;;;;;;;;2.91;100.00;96386.19;1034688;28;20092;-67
2022/02/03 04:57:52;;;;;;;;;;;;;;;2.83;100.00;96378.63;1026633;28;20009;-67
2022/02/03 05:02:42;;;;;;;;;;;;;;;2.87;100.00;96379.81;1035620;28;19924;-66
2022/02/03 05:03:39;;;;;;;;;;;;;;;2.86;100.00;96380.81;1030939;28;19910;-67
2022/02/03 05:04:55;;;;;;;;;;;;;;;2.86;100.00;96375.63;1027565;28;19914;-68
2022/02/03 05:05:52;;;;;;;;;;;;;;;2.88;100.00;96378.00;1027335;28;19953;-68
2022/02/03 05:06:41;;;;;;;;;;;;;;;2.88;100.00;96381.41;1030540;28;19985;-67
2022/02/03 05:09:43;;;;;;;;;;;;;;;2.90;100.00;96370.84;1035810;28;20280;-67
2022/02/03 05:10:29;;;;;;;;;;;;;;;2.90;100.00;96378.63;1036167;28;19909;-68
2022/02/03 05:11:28;;;;;;;;;;;;;;;2.91;100.00;96375.03;1035877;28;20006;-68
2022/02/03 05:12:58;;;;;;;;;;;;;;;2.92;100.00;96377.44;1035218;28;20383;-66
2022/02/03 05:20:24;;;;;;;;;;;;;;;3.01;100.00;96365.84;1035543;28;19972;-68
2022/02/03 05:22:34;;;;;;;;;;;;;;;3.03;100.00;96363.88;1033096;28;19918;-67
2022/02/03 05:23:58;;;;;;;;;;;;;;;3.05;100.00;96369.69;1028439;28;20351;-67
2022/02/03 05:35:30;;;;;;;;;;;;;;;3.10;100.00;96363.88;1029245;28;19907;-67
2022/02/03 05:46:00;;;;;;;;;;;;;;;3.15;100.00;96355.50;1035059;28;19917;-68
2022/02/03 05:48:16;;;;;;;;;;;;;;;3.15;100.00;96355.50;1018981;29;19933;-67
2022/02/03 05:49:02;;;;;;;;;;;;;;;3.17;100.00;96353.50;1025667;28;19918;-66
2022/02/03 05:51:28;;;;;;;;;;;;;;;3.13;100.00;96352.31;1023047;28;20344;-65
2022/02/03 06:01:32;;;;;;;;;;;;;;;3.13;100.00;96347.13;1030461;28;19921;-65
2022/02/03 06:05:30;;;;;;;;;;;;;;;3.17;100.00;96330.16;1033581;28;19921;-67
2022/02/03 06:07:20;;;;;;;;;;;;;;;3.18;100.00;96329.16;1036488;28;19909;-68
2022/02/03 06:07:54;;;;;;;;;;;;;;;3.18;100.00;96323.97;1033964;28;19959;-67
2022/02/03 06:13:06;;;;;;;;;;;;;;;3.16;100.00;96318.22;1034009;28;19933;-68
2022/02/03 06:13:50;;;;;;;;;;;;;;;3.16;100.00;96320.81;1034399;28;19936;-68
2022/02/03 06:14:36;;;;;;;;;;;;;;;3.16;100.00;96321.59;1035035;28;19917;-67
2022/02/03 06:15:20;;;;;;;;;;;;;;;3.15;100.00;96314.00;1035022;28;19909;-68
2022/02/03 06:16:07;;;;;;;;;;;;;;;3.17;100.00;96317.22;1030886;28;20434;-66
2022/02/03 06:21:48;;;;;;;;;;;;;;;3.14;100.00;96317.59;1034680;28;19916;-67
2022/02/03 06:22:55;;;;;;;;;;;;;;;3.11;100.00;96313.59;1025945;28;19994;-67
2022/02/03 06:23:39;;;;;;;;;;;;;;;3.12;100.00;96315.22;1023038;29;19938;-68
2022/02/03 06:24:20;;;;;;;;;;;;;;;3.12;100.00;96310.03;1029698;28;19905;-68
2022/02/03 06:27:25;;;;;;;;;;;;;;;3.11;100.00;96312.81;1026933;28;20378;-68
2022/02/03 06:27:27;;;;;;;;;;;;;;;3.07;100.00;96304.66;1034851;28;20498;-73
2022/02/03 06:27:58;;;;;;;;;;;;;;;3.06;100.00;96308.25;1034336;28;19921;-71
2022/02/03 06:28:29;;;;;;;;;;;;;;;3.04;100.00;96311.03;1033623;28;19917;-72
2022/02/03 06:29:00;;;;;;;;;;;;;;;3.02;100.00;96310.44;1034773;28;19909;-70
2022/02/03 06:29:35;;;;;;;;;;;;;;;3.02;100.00;96310.44;1033378;28;20012;-72
2022/02/03 06:30:06;;;;;;;;;;;;;;;3.00;100.00;96309.03;1029981;28;19918;-71
2022/02/03 06:30:36;;;;;;;;;;;;;;;2.99;100.00;96310.84;1028176;28;19914;-71
2022/02/03 06:31:06;;;;;;;;;;;;;;;2.98;100.00;96309.22;1030088;28;19988;-71
2022/02/03 06:31:37;;;;;;;;;;;;;;;2.97;100.00;96309.44;1027350;28;19949;-72
2022/02/03 06:32:07;;;;;;;;;;;;;;;2.94;100.00;96308.03;1026811;28;19925;-73
2022/02/03 06:32:38;;;;;;;;;;;;;;;2.94;100.00;96310.63;1022579;29;19910;-71
2022/02/03 06:33:09;;;;;;;;;;;;;;;2.93;100.00;96311.63;1021196;28;19926;-73
2022/02/03 06:33:39;;;;;;;;;;;;;;;2.92;100.00;96310.06;1027707;28;19933;-74
2022/02/03 06:34:10;;;;;;;;;;;;;;;2.91;100.00;96305.84;1027061;28;19922;-73
2022/02/03 06:34:40;;;;;;;;;;;;;;;2.90;100.00;96306.84;1030658;28;19929;-71
2022/02/03 06:35:11;;;;;;;;;;;;;;;2.92;100.00;96311.81;1026636;28;19925;-73
2022/02/03 06:35:41;;;;;;;;;;;;;;;2.90;100.00;96308.66;1026849;28;21270;-70
2022/02/03 06:36:12;;;;;;;;;;;;;;;2.90;100.00;96312.03;1020293;28;19919;-72
2022/02/03 06:36:42;;;;;;;;;;;;;;;2.89;100.00;96313.03;1022076;28;19923;-73
2022/02/03 06:37:13;;;;;;;;;;;;;;;2.91;100.00;96313.63;1026780;28;19945;-73
2022/02/03 06:37:45;;;;;;;;;;;;;;;2.91;100.00;96308.44;1026707;28;19926;-73
2022/02/03 06:38:15;;;;;;;;;;;;;;;2.92;100.00;96307.47;1030895;28;19961;-73
2022/02/03 06:38:45;;;;;;;;;;;;;;;2.94;100.00;96307.25;1026817;28;19922;-71
2022/02/03 06:39:16;;;;;;;;;;;;;;;2.95;100.00;96303.66;1031128;28;20502;-73
2022/02/03 06:39:46;;;;;;;;;;;;;;;2.95;100.00;96314.84;1030776;28;19996;-74
2022/02/03 06:40:16;;;;;;;;;;;;;;;2.96;100.00;96306.06;1031120;28;19910;-73
2022/02/03 06:40:47;;;;;;;;;;;;;;;2.98;100.00;96306.63;1030644;28;19914;-73
2022/02/03 14:58:28;;;;;;;;;;;;;;;6.97;100.00;95725.06;1033889;28;20480;-71
2022/02/03 14:58:58;;;;;;;;;;;;;;;6.93;100.00;95712.75;1034478;28;20369;-71
2022/02/03 14:59:29;;;;;;;;;;;;;;;6.92;100.00;95714.56;1036083;28;19909;-70
2022/02/03 15:00:00;;;;;;;;;;;;;;;6.91;100.00;95710.38;1033433;28;19937;-70
2022/02/03 15:00:30;;;;;;;;;;;;;;;6.91;100.00;95710.38;1033697;28;20578;-71
2022/02/03 15:01:01;;;;;;;;;;;;;;;6.91;100.00;95712.19;1034503;28;20004;-71
2022/02/03 15:01:34;;;;;;;;;;;;;;;6.88;100.00;95710.88;1035933;28;20273;-70
2022/02/03 15:02:08;;;;;;;;;;;;;;;6.89;100.00;95714.25;1030726;28;20395;-72
2022/02/03 15:02:38;;;;;;;;;;;;;;;6.87;100.00;95711.09;1034570;28;19909;-70
2022/02/03 15:03:09;;;;;;;;;;;;;;;6.84;100.00;95710.56;1030421;28;20502;-71
2022/02/03 15:03:39;;;;;;;;;;;;;;;6.83;100.00;95706.34;1025918;28;20495;-69
2022/02/03 15:04:13;;;;;;;;;;;;;;;6.83;100.00;95711.56;1033250;28;19910;-71
2022/02/03 15:04:52;;;;;;;;;;;;;;;6.82;100.00;95704.78;1033324;28;19933;-70
2022/02/03 15:05:26;;;;;;;;;;;;;;;6.79;100.00;95689.59;1036735;28;19913;-70
2022/02/03 15:06:03;;;;;;;;;;;;;;;6.81;100.00;95694.59;1043288;28;19917;-70
2022/02/03 15:06:40;;;;;;;;;;;;;;;6.78;100.00;95692.47;1037824;28;19913;-70
2022/02/03 15:07:11;;;;;;;;;;;;;;;6.77;100.00;95696.91;1034554;28;19914;-71
2022/02/03 15:07:43;;;;;;;;;;;;;;;6.76;100.00;95695.28;1029748;28;19917;-70
2022/02/03 15:08:17;;;;;;;;;;;;;;;6.76;100.00;95692.69;1023798;28;19914;-70
2022/02/03 15:08:58;;;;;;;;;;;;;;;6.77;100.00;95696.91;1023951;28;19989;-70
2022/02/03 15:10:12;;;;;;;;;;;;;;;6.77;100.00;95696.91;1026506;28;19914;-71
2022/02/03 15:11:53;;;;;;;;;;;;;;;6.76;100.00;95700.50;1028054;28;20632;-70
2022/02/03 15:13:11;;;;;;;;;;;;;;;6.77;100.00;95699.50;1030721;28;19953;-69
2022/02/03 15:13:44;;;;;;;;;;;;;;;6.75;100.00;95698.94;1033546;28;19925;-69
2022/02/03 15:14:14;;;;;;;;;;;;;;;6.74;100.00;95702.59;1028893;28;19953;-72
2022/02/03 15:14:44;;;;;;;;;;;;;;;6.75;100.00;95705.97;1029363;28;19917;-70
2022/02/03 15:15:15;;;;;;;;;;;;;;;6.71;100.00;95703.06;1031774;28;20023;-70
2022/02/03 15:15:46;;;;;;;;;;;;;;;6.73;100.00;95708.03;1030867;28;19913;-71
2022/02/03 15:16:16;;;;;;;;;;;;;;;6.72;100.00;95704.63;1033622;28;19909;-71
2022/02/03 15:16:46;;;;;;;;;;;;;;;6.72;100.00;95699.41;1035017;28;20214;-71
2022/02/03 15:17:20;;;;;;;;;;;;;;;6.72;100.00;95702.03;1030976;28;19948;-71
2022/02/03 15:17:50;;;;;;;;;;;;;;;6.73;100.00;95706.19;1026755;28;20710;-72
2022/02/03 15:18:21;;;;;;;;;;;;;;;6.72;100.00;95703.84;1026671;28;19914;-69
2022/02/03 15:18:51;;;;;;;;;;;;;;;6.72;100.00;95699.41;1030850;28;19914;-71
2022/02/03 15:19:21;;;;;;;;;;;;;;;6.71;100.00;95694.44;1035148;28;19917;-71
2022/02/03 15:19:52;;;;;;;;;;;;;;;6.70;100.00;95701.47;1033376;28;19913;-71
2022/02/03 15:20:23;;;;;;;;;;;;;;;6.69;100.00;95699.88;1034283;28;20333;-70
2022/02/03 15:20:53;;;;;;;;;;;;;;;6.69;100.00;95693.88;1033508;28;19909;-70
2022/02/03 15:21:24;;;;;;;;;;;;;;;6.69;100.00;95693.88;1030244;28;19914;-70
2022/02/03 15:21:54;;;;;;;;;;;;;;;6.70;100.00;95691.03;1034164;28;20709;-70
2022/02/03 15:22:25;;;;;;;;;;;;;;;6.68;100.00;95693.09;1030168;28;19914;-69
2022/02/03 15:22:55;;;;;;;;;;;;;;;6.69;100.00;95688.69;1025868;28;19914;-68
2022/02/03 15:23:25;;;;;;;;;;;;;;;6.68;100.00;95693.09;1023539;28;20315;-71
2022/02/03 15:23:56;;;;;;;;;;;;;;;6.67;100.00;95693.31;1023885;28;19925;-71
2022/02/03 15:24:26;;;;;;;;;;;;;;;6.66;100.00;95689.94;1022132;28;20086;-71
2022/02/03 15:24:57;;;;;;;;;;;;;;;6.67;100.00;95695.94;1026291;28;19918;-70
2022/02/03 15:25:28;;;;;;;;;;;;;;;6.65;100.00;95693.56;1029214;28;19913;-71
2022/02/03 15:25:58;;;;;;;;;;;;;;;6.65;100.00;95693.56;1025804;28;20398;-70
2022/02/03 15:26:28;;;;;;;;;;;;;;;6.64;100.00;95692.00;1029788;28;20012;-70
2022/02/03 15:27:00;;;;;;;;;;;;;;;6.63;100.00;95700.84;1034466;28;19913;-70
2022/02/03 15:27:30;;;;;;;;;;;;;;;6.63;100.00;95698.22;1039056;28;19906;-69
2022/02/03 15:28:01;;;;;;;;;;;;;;;6.63;100.00;95698.22;1038790;28;20452;-69
2022/02/03 15:28:31;;;;;;;;;;;;;;;6.61;100.00;95701.09;1038647;28;19916;-70
2022/02/03 15:29:01;;;;;;;;;;;;;;;6.61;100.00;95706.31;1034408;28;20361;-70
2022/02/03 15:29:32;;;;;;;;;;;;;;;6.61;100.00;95708.91;1034025;28;19910;-70
2022/02/03 15:30:03;;;;;;;;;;;;;;;6.60;100.00;95706.53;1028086;28;19918;-71